sensor_id;sensor_type;location;lat;lon;timestamp;temperature;humidity
19180;DHT22;9722;48.754;8.868;2023-05-13T00:03:14;11.80;98.10
19180;DHT22;9722;48.754;8.868;2023-05-13T00:06:34;11.60;98.30
19180;DHT22;9722;48.754;8.868;2023-05-13T00:09:55;11.40;98.60
19180;DHT22;9722;48.754;8.868;2023-05-13T00:13:15;11.40;98.90
19180;DHT22;9722;48.754;8.868;2023-05-13T00:16:36;11.40;99.10
19180;DHT22;9722;48.754;8.868;2023-05-13T00:19:57;11.40;99.20
19180;DHT22;9722;48.754;8.868;2023-05-13T00:23:17;11.50;99.40
19180;DHT22;9722;48.754;8.868;2023-05-13T00:26:38;11.50;99.50
19180;DHT22;9722;48.754;8.868;2023-05-13T00:29:58;11.50;99.50
19180;DHT22;9722;48.754;8.868;2023-05-13T00:33:19;11.60;99.50
19180;DHT22;9722;48.754;8.868;2023-05-13T00:36:40;11.60;99.50
19180;DHT22;9722;48.754;8.868;2023-05-13T00:40:00;11.60;99.50
19180;DHT22;9722;48.754;8.868;2023-05-13T00:43:21;11.60;99.50
19180;DHT22;9722;48.754;8.868;2023-05-13T00:46:41;11.60;99.50
19180;DHT22;9722;48.754;8.868;2023-05-13T00:50:02;11.50;99.50
19180;DHT22;9722;48.754;8.868;2023-05-13T00:53:23;11.60;99.70
19180;DHT22;9722;48.754;8.868;2023-05-13T00:56:43;11.60;99.70
19180;DHT22;9722;48.754;8.868;2023-05-13T01:00:04;11.60;99.70
19180;DHT22;9722;48.754;8.868;2023-05-13T01:07:37;11.70;99.60
19180;DHT22;9722;48.754;8.868;2023-05-13T01:11:13;11.60;99.50
19180;DHT22;9722;48.754;8.868;2023-05-13T01:14:40;11.60;99.50
19180;DHT22;9722;48.754;8.868;2023-05-13T01:18:12;11.60;99.50
19180;DHT22;9722;48.754;8.868;2023-05-13T01:21:35;11.60;99.50
19180;DHT22;9722;48.754;8.868;2023-05-13T01:24:56;11.60;99.50
19180;DHT22;9722;48.754;8.868;2023-05-13T01:28:16;11.60;99.60
19180;DHT22;9722;48.754;8.868;2023-05-13T01:31:37;11.60;99.60
19180;DHT22;9722;48.754;8.868;2023-05-13T01:34:59;11.60;99.60
19180;DHT22;9722;48.754;8.868;2023-05-13T01:38:20;11.70;99.60
19180;DHT22;9722;48.754;8.868;2023-05-13T01:41:41;11.60;99.50
19180;DHT22;9722;48.754;8.868;2023-05-13T01:45:05;11.60;99.50
19180;DHT22;9722;48.754;8.868;2023-05-13T01:48:26;11.50;99.40
19180;DHT22;9722;48.754;8.868;2023-05-13T01:51:46;11.50;99.40
19180;DHT22;9722;48.754;8.868;2023-05-13T01:55:07;11.40;99.50
19180;DHT22;9722;48.754;8.868;2023-05-13T01:58:28;11.40;99.60
19180;DHT22;9722;48.754;8.868;2023-05-13T02:01:48;11.30;99.60
19180;DHT22;9722;48.754;8.868;2023-05-13T02:05:09;11.30;99.70
19180;DHT22;9722;48.754;8.868;2023-05-13T02:08:29;11.30;99.70
19180;DHT22;9722;48.754;8.868;2023-05-13T02:11:50;11.20;99.70
19180;DHT22;9722;48.754;8.868;2023-05-13T02:15:10;11.00;99.60
19180;DHT22;9722;48.754;8.868;2023-05-13T02:18:31;10.90;99.80
19180;DHT22;9722;48.754;8.868;2023-05-13T02:21:51;10.90;99.90
19180;DHT22;9722;48.754;8.868;2023-05-13T02:25:12;10.80;99.90
19180;DHT22;9722;48.754;8.868;2023-05-13T02:28:32;10.90;99.90
19180;DHT22;9722;48.754;8.868;2023-05-13T02:31:53;10.80;99.90
19180;DHT22;9722;48.754;8.868;2023-05-13T02:35:14;10.80;99.90
19180;DHT22;9722;48.754;8.868;2023-05-13T02:38:35;10.80;99.90
19180;DHT22;9722;48.754;8.868;2023-05-13T02:41:55;10.80;99.90
19180;DHT22;9722;48.754;8.868;2023-05-13T02:45:17;10.80;99.90
19180;DHT22;9722;48.754;8.868;2023-05-13T02:48:38;10.80;99.90
19180;DHT22;9722;48.754;8.868;2023-05-13T02:51:58;10.80;99.90
19180;DHT22;9722;48.754;8.868;2023-05-13T02:55:19;10.80;99.90
19180;DHT22;9722;48.754;8.868;2023-05-13T02:58:40;10.80;99.90
19180;DHT22;9722;48.754;8.868;2023-05-13T03:02:00;10.80;99.90
19180;DHT22;9722;48.754;8.868;2023-05-13T03:05:21;10.80;99.90
19180;DHT22;9722;48.754;8.868;2023-05-13T03:08:41;10.80;99.90
19180;DHT22;9722;48.754;8.868;2023-05-13T03:12:02;10.80;99.90
19180;DHT22;9722;48.754;8.868;2023-05-13T03:15:22;10.90;99.90
19180;DHT22;9722;48.754;8.868;2023-05-13T03:18:43;10.90;99.90
19180;DHT22;9722;48.754;8.868;2023-05-13T03:22:04;10.90;99.90
19180;DHT22;9722;48.754;8.868;2023-05-13T03:25:25;10.90;99.90
19180;DHT22;9722;48.754;8.868;2023-05-13T03:28:45;10.90;99.90
19180;DHT22;9722;48.754;8.868;2023-05-13T03:32:06;10.90;99.80
19180;DHT22;9722;48.754;8.868;2023-05-13T03:35:27;10.90;99.80
19180;DHT22;9722;48.754;8.868;2023-05-13T03:38:47;10.90;99.80
19180;DHT22;9722;48.754;8.868;2023-05-13T03:42:08;10.80;99.60
19180;DHT22;9722;48.754;8.868;2023-05-13T03:45:28;10.80;99.60
19180;DHT22;9722;48.754;8.868;2023-05-13T03:48:49;10.80;99.50
19180;DHT22;9722;48.754;8.868;2023-05-13T03:52:09;10.80;99.40
19180;DHT22;9722;48.754;8.868;2023-05-13T03:55:30;10.80;99.30
19180;DHT22;9722;48.754;8.868;2023-05-13T03:58:50;10.80;99.30
19180;DHT22;9722;48.754;8.868;2023-05-13T04:02:11;10.80;99.30
19180;DHT22;9722;48.754;8.868;2023-05-13T04:05:31;10.80;99.10
19180;DHT22;9722;48.754;8.868;2023-05-13T04:08:52;10.90;99.00
19180;DHT22;9722;48.754;8.868;2023-05-13T04:12:12;10.90;98.90
19180;DHT22;9722;48.754;8.868;2023-05-13T04:15:33;10.80;98.70
19180;DHT22;9722;48.754;8.868;2023-05-13T04:18:54;10.80;98.70
19180;DHT22;9722;48.754;8.868;2023-05-13T04:22:14;10.90;98.60
19180;DHT22;9722;48.754;8.868;2023-05-13T04:25:35;10.90;98.60
19180;DHT22;9722;48.754;8.868;2023-05-13T04:28:58;10.90;98.50
19180;DHT22;9722;48.754;8.868;2023-05-13T04:32:19;10.90;98.40
19180;DHT22;9722;48.754;8.868;2023-05-13T04:35:43;10.90;98.40
19180;DHT22;9722;48.754;8.868;2023-05-13T04:39:03;10.90;98.50
19180;DHT22;9722;48.754;8.868;2023-05-13T04:42:24;10.90;98.20
19180;DHT22;9722;48.754;8.868;2023-05-13T04:45:46;10.90;98.10
19180;DHT22;9722;48.754;8.868;2023-05-13T04:49:07;10.90;98.10
19180;DHT22;9722;48.754;8.868;2023-05-13T04:52:27;10.90;97.90
19180;DHT22;9722;48.754;8.868;2023-05-13T04:55:48;10.90;97.90
19180;DHT22;9722;48.754;8.868;2023-05-13T04:59:09;11.00;97.80
19180;DHT22;9722;48.754;8.868;2023-05-13T05:02:30;11.00;97.80
19180;DHT22;9722;48.754;8.868;2023-05-13T05:05:51;11.00;97.80
19180;DHT22;9722;48.754;8.868;2023-05-13T05:09:11;11.10;97.70
19180;DHT22;9722;48.754;8.868;2023-05-13T05:12:31;11.10;97.60
19180;DHT22;9722;48.754;8.868;2023-05-13T05:15:52;11.20;97.50
19180;DHT22;9722;48.754;8.868;2023-05-13T05:19:12;11.30;97.40
19180;DHT22;9722;48.754;8.868;2023-05-13T05:22:33;11.30;97.20
19180;DHT22;9722;48.754;8.868;2023-05-13T05:25:55;11.40;97.20
19180;DHT22;9722;48.754;8.868;2023-05-13T05:29:16;11.50;97.00
19180;DHT22;9722;48.754;8.868;2023-05-13T05:32:36;11.40;96.90
19180;DHT22;9722;48.754;8.868;2023-05-13T05:35:57;11.50;96.80
19180;DHT22;9722;48.754;8.868;2023-05-13T05:39:17;11.60;96.60
19180;DHT22;9722;48.754;8.868;2023-05-13T05:42:38;11.60;96.50
19180;DHT22;9722;48.754;8.868;2023-05-13T05:45:58;11.60;96.50
19180;DHT22;9722;48.754;8.868;2023-05-13T05:49:19;11.70;96.30
19180;DHT22;9722;48.754;8.868;2023-05-13T05:52:39;11.70;96.20
19180;DHT22;9722;48.754;8.868;2023-05-13T05:56:00;11.70;96.10
19180;DHT22;9722;48.754;8.868;2023-05-13T05:59:20;11.70;96.00
19180;DHT22;9722;48.754;8.868;2023-05-13T06:02:41;11.70;95.90
19180;DHT22;9722;48.754;8.868;2023-05-13T06:06:01;11.70;95.80
19180;DHT22;9722;48.754;8.868;2023-05-13T06:09:22;11.80;95.70
19180;DHT22;9722;48.754;8.868;2023-05-13T06:12:42;11.80;95.50
19180;DHT22;9722;48.754;8.868;2023-05-13T06:16:03;11.90;95.40
19180;DHT22;9722;48.754;8.868;2023-05-13T06:19:24;11.90;95.30
19180;DHT22;9722;48.754;8.868;2023-05-13T06:22:44;12.00;95.20
19180;DHT22;9722;48.754;8.868;2023-05-13T06:26:05;12.10;95.10
19180;DHT22;9722;48.754;8.868;2023-05-13T06:29:26;12.10;94.90
19180;DHT22;9722;48.754;8.868;2023-05-13T06:32:46;12.20;94.70
19180;DHT22;9722;48.754;8.868;2023-05-13T06:36:07;12.20;94.50
19180;DHT22;9722;48.754;8.868;2023-05-13T06:39:28;12.40;94.40
19180;DHT22;9722;48.754;8.868;2023-05-13T06:42:49;12.50;94.20
19180;DHT22;9722;48.754;8.868;2023-05-13T06:46:09;12.50;94.10
19180;DHT22;9722;48.754;8.868;2023-05-13T06:49:31;12.60;93.90
19180;DHT22;9722;48.754;8.868;2023-05-13T06:52:53;12.60;93.70
19180;DHT22;9722;48.754;8.868;2023-05-13T06:56:13;12.70;93.60
19180;DHT22;9722;48.754;8.868;2023-05-13T06:59:34;12.80;93.50
19180;DHT22;9722;48.754;8.868;2023-05-13T07:02:55;12.90;93.20
19180;DHT22;9722;48.754;8.868;2023-05-13T07:06:15;12.90;93.10
19180;DHT22;9722;48.754;8.868;2023-05-13T07:09:36;12.90;93.00
19180;DHT22;9722;48.754;8.868;2023-05-13T07:12:56;13.00;92.90
19180;DHT22;9722;48.754;8.868;2023-05-13T07:16:17;13.10;92.60
19180;DHT22;9722;48.754;8.868;2023-05-13T07:19:37;13.20;92.30
19180;DHT22;9722;48.754;8.868;2023-05-13T07:22:58;13.30;92.30
19180;DHT22;9722;48.754;8.868;2023-05-13T07:26:18;13.40;91.90
19180;DHT22;9722;48.754;8.868;2023-05-13T07:29:39;13.50;91.80
19180;DHT22;9722;48.754;8.868;2023-05-13T07:32:59;13.50;91.40
19180;DHT22;9722;48.754;8.868;2023-05-13T07:36:20;13.70;91.20
19180;DHT22;9722;48.754;8.868;2023-05-13T07:39:41;13.80;90.80
19180;DHT22;9722;48.754;8.868;2023-05-13T07:43:02;13.90;90.60
19180;DHT22;9722;48.754;8.868;2023-05-13T07:46:22;14.10;90.30
19180;DHT22;9722;48.754;8.868;2023-05-13T07:49:43;14.30;89.70
19180;DHT22;9722;48.754;8.868;2023-05-13T07:53:03;14.50;89.20
19180;DHT22;9722;48.754;8.868;2023-05-13T07:56:24;14.70;88.30
19180;DHT22;9722;48.754;8.868;2023-05-13T07:59:45;14.80;87.60
19180;DHT22;9722;48.754;8.868;2023-05-13T08:03:05;14.90;86.70
19180;DHT22;9722;48.754;8.868;2023-05-13T08:06:26;15.00;85.60
19180;DHT22;9722;48.754;8.868;2023-05-13T08:09:46;15.00;84.90
19180;DHT22;9722;48.754;8.868;2023-05-13T08:13:07;15.10;85.00
19180;DHT22;9722;48.754;8.868;2023-05-13T08:16:27;15.20;84.30
19180;DHT22;9722;48.754;8.868;2023-05-13T08:19:48;15.20;84.00
19180;DHT22;9722;48.754;8.868;2023-05-13T08:23:08;15.20;83.50
19180;DHT22;9722;48.754;8.868;2023-05-13T08:26:29;15.20;82.90
19180;DHT22;9722;48.754;8.868;2023-05-13T08:29:49;15.30;82.60
19180;DHT22;9722;48.754;8.868;2023-05-13T08:33:10;15.30;81.90
19180;DHT22;9722;48.754;8.868;2023-05-13T08:36:31;15.40;81.50
19180;DHT22;9722;48.754;8.868;2023-05-13T08:39:51;15.50;81.70
19180;DHT22;9722;48.754;8.868;2023-05-13T08:43:14;15.60;81.50
19180;DHT22;9722;48.754;8.868;2023-05-13T08:46:36;15.70;80.80
19180;DHT22;9722;48.754;8.868;2023-05-13T08:49:57;15.80;80.30
19180;DHT22;9722;48.754;8.868;2023-05-13T08:53:19;15.80;79.90
19180;DHT22;9722;48.754;8.868;2023-05-13T08:56:40;15.80;79.40
19180;DHT22;9722;48.754;8.868;2023-05-13T09:00:02;15.80;79.30
19180;DHT22;9722;48.754;8.868;2023-05-13T09:03:23;15.90;78.90
19180;DHT22;9722;48.754;8.868;2023-05-13T09:06:48;15.80;78.60
19180;DHT22;9722;48.754;8.868;2023-05-13T09:10:09;15.80;78.90
19180;DHT22;9722;48.754;8.868;2023-05-13T09:13:30;15.90;78.80
19180;DHT22;9722;48.754;8.868;2023-05-13T09:16:50;16.00;78.10
19180;DHT22;9722;48.754;8.868;2023-05-13T09:20:13;15.90;78.20
19180;DHT22;9722;48.754;8.868;2023-05-13T09:23:34;15.90;78.50
19180;DHT22;9722;48.754;8.868;2023-05-13T09:26:55;15.80;78.40
19180;DHT22;9722;48.754;8.868;2023-05-13T09:30:15;15.80;78.70
19180;DHT22;9722;48.754;8.868;2023-05-13T09:33:36;15.80;78.80
19180;DHT22;9722;48.754;8.868;2023-05-13T09:37:02;15.80;78.90
19180;DHT22;9722;48.754;8.868;2023-05-13T09:40:23;15.80;78.70
19180;DHT22;9722;48.754;8.868;2023-05-13T09:43:43;15.70;78.90
19180;DHT22;9722;48.754;8.868;2023-05-13T09:47:04;15.70;78.90
19180;DHT22;9722;48.754;8.868;2023-05-13T09:50:24;15.80;78.80
19180;DHT22;9722;48.754;8.868;2023-05-13T09:53:46;15.90;78.90
19180;DHT22;9722;48.754;8.868;2023-05-13T09:57:07;16.00;78.80
19180;DHT22;9722;48.754;8.868;2023-05-13T10:00:27;16.10;78.40
19180;DHT22;9722;48.754;8.868;2023-05-13T10:03:48;16.10;78.00
19180;DHT22;9722;48.754;8.868;2023-05-13T10:07:10;16.20;77.60
19180;DHT22;9722;48.754;8.868;2023-05-13T10:10:33;16.30;77.40
19180;DHT22;9722;48.754;8.868;2023-05-13T10:13:59;16.30;76.80
19180;DHT22;9722;48.754;8.868;2023-05-13T10:17:21;16.40;76.40
19180;DHT22;9722;48.754;8.868;2023-05-13T10:20:43;16.40;76.20
19180;DHT22;9722;48.754;8.868;2023-05-13T10:24:04;16.50;75.90
19180;DHT22;9722;48.754;8.868;2023-05-13T10:27:26;16.60;75.50
19180;DHT22;9722;48.754;8.868;2023-05-13T10:30:50;16.80;75.70
19180;DHT22;9722;48.754;8.868;2023-05-13T10:34:11;17.00;75.30
19180;DHT22;9722;48.754;8.868;2023-05-13T10:37:38;17.10;74.60
19180;DHT22;9722;48.754;8.868;2023-05-13T10:41:34;17.30;73.80
19180;DHT22;9722;48.754;8.868;2023-05-13T10:44:58;17.30;72.90
19180;DHT22;9722;48.754;8.868;2023-05-13T10:48:18;17.40;72.40
19180;DHT22;9722;48.754;8.868;2023-05-13T10:51:44;17.40;71.80
19180;DHT22;9722;48.754;8.868;2023-05-13T10:55:14;17.60;71.90
19180;DHT22;9722;48.754;8.868;2023-05-13T10:58:35;18.00;71.00
19180;DHT22;9722;48.754;8.868;2023-05-13T11:05:42;18.60;68.50
19180;DHT22;9722;48.754;8.868;2023-05-13T11:09:12;18.60;67.90
19180;DHT22;9722;48.754;8.868;2023-05-13T11:12:33;18.70;67.20
19180;DHT22;9722;48.754;8.868;2023-05-13T11:15:53;18.60;67.80
19180;DHT22;9722;48.754;8.868;2023-05-13T11:19:20;18.50;67.00
19180;DHT22;9722;48.754;8.868;2023-05-13T11:22:41;18.30;67.20
19180;DHT22;9722;48.754;8.868;2023-05-13T11:26:09;18.10;67.40
19180;DHT22;9722;48.754;8.868;2023-05-13T11:29:34;17.90;67.50
19180;DHT22;9722;48.754;8.868;2023-05-13T11:32:57;17.70;67.80
19180;DHT22;9722;48.754;8.868;2023-05-13T11:36:18;17.60;68.50
19180;DHT22;9722;48.754;8.868;2023-05-13T11:39:40;17.50;68.90
19180;DHT22;9722;48.754;8.868;2023-05-13T11:43:01;17.30;68.90
19180;DHT22;9722;48.754;8.868;2023-05-13T11:46:24;17.30;69.50
19180;DHT22;9722;48.754;8.868;2023-05-13T11:49:46;17.20;69.80
19180;DHT22;9722;48.754;8.868;2023-05-13T11:53:06;17.10;70.00
19180;DHT22;9722;48.754;8.868;2023-05-13T11:56:27;17.20;70.10
19180;DHT22;9722;48.754;8.868;2023-05-13T11:59:56;17.30;70.20
19180;DHT22;9722;48.754;8.868;2023-05-13T12:03:17;17.60;70.20
19180;DHT22;9722;48.754;8.868;2023-05-13T12:06:44;18.10;69.90
19180;DHT22;9722;48.754;8.868;2023-05-13T12:10:06;18.50;69.20
19180;DHT22;9722;48.754;8.868;2023-05-13T12:13:26;19.00;67.80
19180;DHT22;9722;48.754;8.868;2023-05-13T12:16:47;19.30;66.70
19180;DHT22;9722;48.754;8.868;2023-05-13T12:20:12;19.50;65.40
19180;DHT22;9722;48.754;8.868;2023-05-13T12:23:39;19.60;64.80
19180;DHT22;9722;48.754;8.868;2023-05-13T12:27:06;19.50;64.10
19180;DHT22;9722;48.754;8.868;2023-05-13T12:30:39;19.30;64.10
19180;DHT22;9722;48.754;8.868;2023-05-13T12:34:00;19.10;64.40
19180;DHT22;9722;48.754;8.868;2023-05-13T12:37:23;18.90;64.10
19180;DHT22;9722;48.754;8.868;2023-05-13T12:40:46;18.60;64.00
19180;DHT22;9722;48.754;8.868;2023-05-13T12:44:12;18.30;64.40
19180;DHT22;9722;48.754;8.868;2023-05-13T12:47:49;18.10;65.00
19180;DHT22;9722;48.754;8.868;2023-05-13T12:51:10;17.90;65.10
19180;DHT22;9722;48.754;8.868;2023-05-13T12:54:31;17.90;65.60
19180;DHT22;9722;48.754;8.868;2023-05-13T12:58:00;18.00;65.10
19180;DHT22;9722;48.754;8.868;2023-05-13T13:01:21;18.10;64.50
19180;DHT22;9722;48.754;8.868;2023-05-13T13:04:41;18.20;64.20
19180;DHT22;9722;48.754;8.868;2023-05-13T13:08:02;18.30;64.40
19180;DHT22;9722;48.754;8.868;2023-05-13T13:11:24;18.50;64.40
19180;DHT22;9722;48.754;8.868;2023-05-13T13:14:44;18.80;63.80
19180;DHT22;9722;48.754;8.868;2023-05-13T13:18:05;19.20;62.50
19180;DHT22;9722;48.754;8.868;2023-05-13T13:21:25;19.50;61.70
19180;DHT22;9722;48.754;8.868;2023-05-13T13:24:46;19.70;61.20
19180;DHT22;9722;48.754;8.868;2023-05-13T13:28:06;19.80;60.50
19180;DHT22;9722;48.754;8.868;2023-05-13T13:31:27;19.70;60.30
19180;DHT22;9722;48.754;8.868;2023-05-13T13:34:48;19.80;60.70
19180;DHT22;9722;48.754;8.868;2023-05-13T13:38:08;20.30;59.20
19180;DHT22;9722;48.754;8.868;2023-05-13T13:41:29;20.80;58.70
19180;DHT22;9722;48.754;8.868;2023-05-13T13:44:49;21.00;58.20
19180;DHT22;9722;48.754;8.868;2023-05-13T13:48:10;21.00;58.20
19180;DHT22;9722;48.754;8.868;2023-05-13T13:51:30;20.90;58.00
19180;DHT22;9722;48.754;8.868;2023-05-13T13:54:51;20.80;57.70
19180;DHT22;9722;48.754;8.868;2023-05-13T13:58:11;20.50;58.00
19180;DHT22;9722;48.754;8.868;2023-05-13T14:01:32;20.40;58.40
19180;DHT22;9722;48.754;8.868;2023-05-13T14:04:52;20.20;58.50
19180;DHT22;9722;48.754;8.868;2023-05-13T14:08:13;20.00;59.00
19180;DHT22;9722;48.754;8.868;2023-05-13T14:11:33;19.80;59.10
19180;DHT22;9722;48.754;8.868;2023-05-13T14:14:54;19.90;59.40
19180;DHT22;9722;48.754;8.868;2023-05-13T14:18:15;20.00;59.20
19180;DHT22;9722;48.754;8.868;2023-05-13T14:21:35;20.10;59.00
19180;DHT22;9722;48.754;8.868;2023-05-13T14:24:58;20.00;58.90
19180;DHT22;9722;48.754;8.868;2023-05-13T14:28:18;19.80;59.00
19180;DHT22;9722;48.754;8.868;2023-05-13T14:31:39;19.50;59.20
19180;DHT22;9722;48.754;8.868;2023-05-13T14:34:59;19.30;59.60
19180;DHT22;9722;48.754;8.868;2023-05-13T14:38:20;19.10;59.80
19180;DHT22;9722;48.754;8.868;2023-05-13T14:41:40;19.00;60.20
19180;DHT22;9722;48.754;8.868;2023-05-13T14:45:01;19.00;60.50
19180;DHT22;9722;48.754;8.868;2023-05-13T14:48:22;19.10;60.60
19180;DHT22;9722;48.754;8.868;2023-05-13T14:51:42;19.20;60.70
19180;DHT22;9722;48.754;8.868;2023-05-13T14:55:03;19.40;60.80
19180;DHT22;9722;48.754;8.868;2023-05-13T14:58:24;19.50;60.50
19180;DHT22;9722;48.754;8.868;2023-05-13T15:01:45;19.40;60.00
19180;DHT22;9722;48.754;8.868;2023-05-13T15:05:06;19.40;60.00
19180;DHT22;9722;48.754;8.868;2023-05-13T15:08:26;19.40;60.00
19180;DHT22;9722;48.754;8.868;2023-05-13T15:11:47;19.30;60.10
19180;DHT22;9722;48.754;8.868;2023-05-13T15:15:08;19.20;60.60
19180;DHT22;9722;48.754;8.868;2023-05-13T15:18:29;19.20;60.80
19180;DHT22;9722;48.754;8.868;2023-05-13T15:21:50;19.00;60.60
19180;DHT22;9722;48.754;8.868;2023-05-13T15:25:11;18.80;61.20
19180;DHT22;9722;48.754;8.868;2023-05-13T15:28:31;18.40;61.70
19180;DHT22;9722;48.754;8.868;2023-05-13T15:31:51;18.20;62.60
19180;DHT22;9722;48.754;8.868;2023-05-13T15:35:14;17.90;63.20
19180;DHT22;9722;48.754;8.868;2023-05-13T15:38:36;17.70;63.80
19180;DHT22;9722;48.754;8.868;2023-05-13T15:41:56;17.60;64.40
19180;DHT22;9722;48.754;8.868;2023-05-13T15:45:17;17.50;65.00
19180;DHT22;9722;48.754;8.868;2023-05-13T15:48:37;17.40;65.60
19180;DHT22;9722;48.754;8.868;2023-05-13T15:51:59;17.30;66.00
19180;DHT22;9722;48.754;8.868;2023-05-13T15:55:20;17.30;66.30
19180;DHT22;9722;48.754;8.868;2023-05-13T15:58:41;17.30;66.50
19180;DHT22;9722;48.754;8.868;2023-05-13T16:02:01;17.30;66.60
19180;DHT22;9722;48.754;8.868;2023-05-13T16:05:22;17.30;67.00
19180;DHT22;9722;48.754;8.868;2023-05-13T16:08:42;17.30;67.10
19180;DHT22;9722;48.754;8.868;2023-05-13T16:12:03;17.30;67.10
19180;DHT22;9722;48.754;8.868;2023-05-13T16:15:23;17.40;67.00
19180;DHT22;9722;48.754;8.868;2023-05-13T16:18:44;17.30;66.80
19180;DHT22;9722;48.754;8.868;2023-05-13T16:22:28;17.20;66.90
19180;DHT22;9722;48.754;8.868;2023-05-13T16:25:49;17.20;67.20
19180;DHT22;9722;48.754;8.868;2023-05-13T16:29:10;17.10;66.90
19180;DHT22;9722;48.754;8.868;2023-05-13T16:32:31;17.00;67.10
19180;DHT22;9722;48.754;8.868;2023-05-13T16:35:52;17.00;67.70
19180;DHT22;9722;48.754;8.868;2023-05-13T16:39:12;16.90;67.80
19180;DHT22;9722;48.754;8.868;2023-05-13T16:42:33;16.90;68.20
19180;DHT22;9722;48.754;8.868;2023-05-13T16:45:54;16.80;68.50
19180;DHT22;9722;48.754;8.868;2023-05-13T16:49:15;16.60;68.60
19180;DHT22;9722;48.754;8.868;2023-05-13T16:52:35;16.60;69.00
19180;DHT22;9722;48.754;8.868;2023-05-13T16:55:56;16.40;69.30
19180;DHT22;9722;48.754;8.868;2023-05-13T16:59:20;16.40;70.20
19180;DHT22;9722;48.754;8.868;2023-05-13T17:02:41;16.30;70.30
19180;DHT22;9722;48.754;8.868;2023-05-13T17:06:02;16.20;70.70
19180;DHT22;9722;48.754;8.868;2023-05-13T17:09:23;16.10;71.10
19180;DHT22;9722;48.754;8.868;2023-05-13T17:12:43;16.00;71.70
19180;DHT22;9722;48.754;8.868;2023-05-13T17:16:04;15.90;72.40
19180;DHT22;9722;48.754;8.868;2023-05-13T17:19:24;15.90;73.00
19180;DHT22;9722;48.754;8.868;2023-05-13T17:22:45;15.70;73.30
19180;DHT22;9722;48.754;8.868;2023-05-13T17:26:06;15.60;73.50
19180;DHT22;9722;48.754;8.868;2023-05-13T17:29:27;15.60;74.10
19180;DHT22;9722;48.754;8.868;2023-05-13T17:32:47;15.50;74.40
19180;DHT22;9722;48.754;8.868;2023-05-13T17:36:08;15.40;74.90
19180;DHT22;9722;48.754;8.868;2023-05-13T17:39:29;15.30;75.50
19180;DHT22;9722;48.754;8.868;2023-05-13T17:42:50;15.20;76.00
19180;DHT22;9722;48.754;8.868;2023-05-13T17:46:10;15.20;76.60
19180;DHT22;9722;48.754;8.868;2023-05-13T17:49:31;15.10;76.80
19180;DHT22;9722;48.754;8.868;2023-05-13T17:52:51;15.10;77.20
19180;DHT22;9722;48.754;8.868;2023-05-13T17:56:12;15.00;77.60
19180;DHT22;9722;48.754;8.868;2023-05-13T17:59:32;15.00;77.80
19180;DHT22;9722;48.754;8.868;2023-05-13T18:02:52;15.00;78.30
19180;DHT22;9722;48.754;8.868;2023-05-13T18:06:13;14.90;78.40
19180;DHT22;9722;48.754;8.868;2023-05-13T18:09:34;14.90;78.90
19180;DHT22;9722;48.754;8.868;2023-05-13T18:12:55;14.90;79.50
19180;DHT22;9722;48.754;8.868;2023-05-13T18:16:15;14.80;79.60
19180;DHT22;9722;48.754;8.868;2023-05-13T18:19:37;14.80;80.10
19180;DHT22;9722;48.754;8.868;2023-05-13T18:22:57;14.80;80.40
19180;DHT22;9722;48.754;8.868;2023-05-13T18:26:18;14.70;80.60
19180;DHT22;9722;48.754;8.868;2023-05-13T18:29:38;14.70;80.90
19180;DHT22;9722;48.754;8.868;2023-05-13T18:32:59;14.60;81.20
19180;DHT22;9722;48.754;8.868;2023-05-13T18:36:19;14.60;81.60
19180;DHT22;9722;48.754;8.868;2023-05-13T18:39:40;14.60;82.00
19180;DHT22;9722;48.754;8.868;2023-05-13T18:43:02;14.60;82.20
19180;DHT22;9722;48.754;8.868;2023-05-13T18:46:23;14.50;82.40
19180;DHT22;9722;48.754;8.868;2023-05-13T18:49:43;14.50;82.70
19180;DHT22;9722;48.754;8.868;2023-05-13T18:53:04;14.50;83.00
19180;DHT22;9722;48.754;8.868;2023-05-13T18:56:28;14.50;83.90
19180;DHT22;9722;48.754;8.868;2023-05-13T18:59:49;14.50;83.50
19180;DHT22;9722;48.754;8.868;2023-05-13T19:03:10;14.50;83.50
19180;DHT22;9722;48.754;8.868;2023-05-13T19:06:30;14.50;83.50
19180;DHT22;9722;48.754;8.868;2023-05-13T19:09:51;14.50;83.70
19180;DHT22;9722;48.754;8.868;2023-05-13T19:13:12;14.50;84.20
19180;DHT22;9722;48.754;8.868;2023-05-13T19:16:34;14.40;84.40
19180;DHT22;9722;48.754;8.868;2023-05-13T19:19:54;14.40;84.90
19180;DHT22;9722;48.754;8.868;2023-05-13T19:23:16;14.30;84.90
19180;DHT22;9722;48.754;8.868;2023-05-13T19:26:37;14.30;85.70
19180;DHT22;9722;48.754;8.868;2023-05-13T19:29:57;14.30;87.00
19180;DHT22;9722;48.754;8.868;2023-05-13T19:33:18;14.10;87.20
19180;DHT22;9722;48.754;8.868;2023-05-13T19:36:38;14.10;87.80
19180;DHT22;9722;48.754;8.868;2023-05-13T19:39:59;13.90;88.20
19180;DHT22;9722;48.754;8.868;2023-05-13T19:43:19;13.90;89.00
19180;DHT22;9722;48.754;8.868;2023-05-13T19:46:40;13.90;89.50
19180;DHT22;9722;48.754;8.868;2023-05-13T19:50:00;13.80;90.00
19180;DHT22;9722;48.754;8.868;2023-05-13T19:53:21;13.70;90.40
19180;DHT22;9722;48.754;8.868;2023-05-13T19:56:42;13.50;90.30
19180;DHT22;9722;48.754;8.868;2023-05-13T20:00:02;13.40;90.60
19180;DHT22;9722;48.754;8.868;2023-05-13T20:03:24;13.20;91.00
19180;DHT22;9722;48.754;8.868;2023-05-13T20:06:45;13.00;91.20
19180;DHT22;9722;48.754;8.868;2023-05-13T20:10:06;12.80;91.50
19180;DHT22;9722;48.754;8.868;2023-05-13T20:13:27;12.70;91.90
19180;DHT22;9722;48.754;8.868;2023-05-13T20:16:48;12.60;92.30
19180;DHT22;9722;48.754;8.868;2023-05-13T20:20:08;12.40;92.70
19180;DHT22;9722;48.754;8.868;2023-05-13T20:23:29;12.30;93.00
19180;DHT22;9722;48.754;8.868;2023-05-13T20:26:50;12.20;93.50
19180;DHT22;9722;48.754;8.868;2023-05-13T20:30:11;12.20;93.80
19180;DHT22;9722;48.754;8.868;2023-05-13T20:33:31;12.10;94.00
19180;DHT22;9722;48.754;8.868;2023-05-13T20:36:52;12.10;94.20
19180;DHT22;9722;48.754;8.868;2023-05-13T20:40:12;11.90;94.40
19180;DHT22;9722;48.754;8.868;2023-05-13T20:43:34;12.00;94.70
19180;DHT22;9722;48.754;8.868;2023-05-13T20:46:55;11.90;94.90
19180;DHT22;9722;48.754;8.868;2023-05-13T20:50:15;11.90;95.00
19180;DHT22;9722;48.754;8.868;2023-05-13T20:53:36;11.90;95.10
19180;DHT22;9722;48.754;8.868;2023-05-13T20:56:57;11.90;95.40
19180;DHT22;9722;48.754;8.868;2023-05-13T21:00:17;11.80;95.60
19180;DHT22;9722;48.754;8.868;2023-05-13T21:03:38;11.70;95.70
19180;DHT22;9722;48.754;8.868;2023-05-13T21:06:58;11.60;95.90
19180;DHT22;9722;48.754;8.868;2023-05-13T21:10:19;11.50;96.20
19180;DHT22;9722;48.754;8.868;2023-05-13T21:13:39;11.50;96.50
19180;DHT22;9722;48.754;8.868;2023-05-13T21:17:00;11.50;96.80
19180;DHT22;9722;48.754;8.868;2023-05-13T21:20:22;11.50;97.10
19180;DHT22;9722;48.754;8.868;2023-05-13T21:23:45;11.50;97.30
19180;DHT22;9722;48.754;8.868;2023-05-13T21:27:07;11.40;97.40
19180;DHT22;9722;48.754;8.868;2023-05-13T21:30:27;11.50;97.50
19180;DHT22;9722;48.754;8.868;2023-05-13T21:33:48;11.40;97.60
19180;DHT22;9722;48.754;8.868;2023-05-13T21:37:08;11.50;97.70
19180;DHT22;9722;48.754;8.868;2023-05-13T21:40:29;11.40;97.90